Aviation Digital Data Service (ADDS)

Output produced by METARs form (0650 UTC 24 July 2016)
found at http://aviationweather.gov/adds/metars/
 
KPGV 240528Z 2406/2506 20003KT P6SM SKC 
     FM241000 VRB02KT 5SM BR FEW250 
     FM241200 19006KT P6SM FEW050 AMD LTD TO CLD VIS AND WIND